Time;durP1;ratioP1;P1;durP2;ratioP2;P2;SDS_P1;SDS_P2;PMS_P1;PMS_P2;Temp;Humidity;BMP_temperature;BMP_pressure;BME280_temperature;BME280_humidity;BME280_pressure;Samples;Min_cycle;Max_cycle;Signal;HPM_P1;HPM_P2
2022/07/14 00:01:44;;;;;;;4.65;2.75;;;20.20;64.70;;;;;;5055564;28;20131;-17
2022/07/14 00:04:10;;;;;;;4.00;2.40;;;20.20;65.00;;;;;;5054900;28;20115;-18
2022/07/14 00:06:36;;;;;;;4.97;2.70;;;20.20;64.80;;;;;;5054916;28;20036;-16
2022/07/14 00:09:03;;;;;;;3.22;2.50;;;20.10;64.70;;;;;;5055109;28;20021;-17
2022/07/14 00:11:29;;;;;;;3.00;2.70;;;20.10;64.70;;;;;;5055165;28;20029;-18
2022/07/14 00:13:58;;;;;;;3.78;2.35;;;20.00;64.90;;;;;;5054767;28;20108;-17
2022/07/14 00:16:25;;;;;;;3.78;2.70;;;20.00;64.90;;;;;;5054823;28;20083;-17
2022/07/14 00:18:51;;;;;;;7.57;3.45;;;19.90;65.30;;;;;;5054640;28;20120;-17
2022/07/14 00:21:17;;;;;;;3.38;2.40;;;19.90;66.20;;;;;;5054847;28;20155;-17
2022/07/14 00:23:45;;;;;;;4.55;2.78;;;19.90;65.70;;;;;;5055193;28;20040;-18
2022/07/14 00:26:12;;;;;;;6.88;2.55;;;19.80;65.90;;;;;;5054645;28;20021;-18
2022/07/14 00:28:39;;;;;;;5.03;2.75;;;19.80;66.00;;;;;;5054353;28;20025;-18
2022/07/14 00:31:10;;;;;;;4.00;3.03;;;19.80;66.10;;;;;;5054240;28;20088;-18
2022/07/14 00:33:38;;;;;;;3.33;2.90;;;19.70;66.40;;;;;;5054614;28;20021;-18
2022/07/14 00:36:05;;;;;;;3.63;2.63;;;19.70;66.40;;;;;;5054447;28;20063;-18
2022/07/14 00:38:31;;;;;;;4.22;2.60;;;19.60;66.90;;;;;;5054317;28;20068;-18
2022/07/14 00:40:58;;;;;;;3.03;2.38;;;19.60;67.00;;;;;;5054194;28;20503;-17
2022/07/14 00:43:24;;;;;;;3.75;2.45;;;19.60;66.90;;;;;;5054457;28;20025;-17
2022/07/14 00:45:50;;;;;;;5.53;2.83;;;19.50;66.80;;;;;;5054384;28;20052;-19
2022/07/14 00:48:17;;;;;;;3.70;2.90;;;19.50;66.90;;;;;;5054218;28;20489;-18
2022/07/14 00:50:44;;;;;;;6.30;2.90;;;19.50;67.30;;;;;;5054333;28;20098;-18
2022/07/14 00:53:12;;;;;;;3.55;2.47;;;19.40;67.40;;;;;;5054292;28;20036;-17
2022/07/14 00:55:43;;;;;;;3.38;2.33;;;19.40;67.60;;;;;;5054207;28;20032;-19
2022/07/14 00:58:12;;;;;;;4.07;2.55;;;19.40;67.70;;;;;;5054560;28;20037;-18
2022/07/14 01:00:39;;;;;;;3.47;3.17;;;19.40;67.90;;;;;;5054171;28;20036;-18
2022/07/14 01:03:05;;;;;;;4.47;2.92;;;19.30;68.00;;;;;;5053828;28;20187;-18
2022/07/14 01:05:32;;;;;;;4.70;2.83;;;19.30;68.10;;;;;;5053776;28;20087;-18
2022/07/14 01:07:58;;;;;;;4.80;3.00;;;19.20;68.30;;;;;;5053954;28;20036;-18
2022/07/14 01:10:24;;;;;;;6.57;3.10;;;19.20;68.50;;;;;;5052736;28;20025;-17
2022/07/14 01:12:50;;;;;;;4.47;3.65;;;19.10;69.00;;;;;;5053919;28;20031;-16
2022/07/14 01:15:19;;;;;;;5.60;3.17;;;19.10;69.60;;;;;;5053918;28;20411;-17
2022/07/14 01:17:47;;;;;;;3.58;3.00;;;19.00;69.50;;;;;;5053540;28;20078;-18
2022/07/14 01:20:14;;;;;;;4.28;3.40;;;19.00;69.60;;;;;;5053287;28;20500;-20
2022/07/14 01:22:41;;;;;;;5.60;2.97;;;18.90;70.60;;;;;;5053679;28;20043;-18
2022/07/14 01:25:07;;;;;;;7.93;4.35;;;18.90;69.90;;;;;;5053407;28;20028;-17
2022/07/14 01:27:34;;;;;;;4.28;3.05;;;18.90;70.10;;;;;;5053860;28;20060;-17
2022/07/14 01:30:00;;;;;;;5.03;3.10;;;18.90;70.20;;;;;;5053233;28;20571;-18
2022/07/14 01:32:26;;;;;;;5.00;3.65;;;18.80;70.20;;;;;;5053339;28;20028;-17
2022/07/14 01:34:52;;;;;;;6.28;3.47;;;18.80;70.50;;;;;;5053618;28;20392;-17
2022/07/14 01:37:19;;;;;;;3.65;2.90;;;18.80;70.90;;;;;;5053215;28;20060;-17
2022/07/14 01:39:45;;;;;;;5.72;3.15;;;18.70;70.80;;;;;;5053230;28;20472;-18
2022/07/14 01:42:11;;;;;;;7.35;4.28;;;18.70;70.80;;;;;;5053266;28;20020;-18
2022/07/14 01:44:38;;;;;;;6.35;3.70;;;18.60;71.20;;;;;;5053260;28;20032;-18
2022/07/14 01:47:04;;;;;;;8.25;4.53;;;18.60;71.30;;;;;;5053125;28;20114;-18
2022/07/14 01:49:30;;;;;;;6.75;3.78;;;18.60;71.70;;;;;;5053346;28;20183;-19
2022/07/14 01:51:56;;;;;;;4.32;3.47;;;18.60;71.60;;;;;;5053324;28;20028;-17
2022/07/14 01:54:23;;;;;;;8.07;4.10;;;18.50;71.40;;;;;;5053159;28;20025;-17
2022/07/14 01:56:49;;;;;;;5.97;3.72;;;18.50;71.80;;;;;;5053334;28;20104;-17
2022/07/14 01:59:15;;;;;;;8.43;4.68;;;18.50;71.90;;;;;;5052985;28;20508;-18
2022/07/14 02:01:42;;;;;;;5.82;4.18;;;18.50;72.30;;;;;;5053260;28;20028;-18
2022/07/14 02:04:13;;;;;;;4.78;3.55;;;18.50;72.40;;;;;;5052966;28;20025;-17
2022/07/14 02:06:45;;;;;;;7.22;3.90;;;18.50;72.30;;;;;;5053205;28;20029;-17
2022/07/14 02:09:11;;;;;;;7.88;4.13;;;18.40;72.00;;;;;;5052839;28;20095;-17
2022/07/14 02:14:23;;;;;;;8.07;4.03;;;18.40;72.60;;;;;;5052987;28;20144;-17
2022/07/14 02:16:49;;;;;;;7.05;3.88;;;18.50;72.60;;;;;;5053095;28;20104;-18
2022/07/14 02:19:16;;;;;;;4.05;3.10;;;18.50;72.30;;;;;;5051631;28;20395;-18
2022/07/14 02:21:42;;;;;;;5.45;3.42;;;18.50;72.20;;;;;;5053779;28;20036;-18
2022/07/14 02:24:09;;;;;;;8.32;4.47;;;18.50;72.20;;;;;;5057125;28;20029;-18
2022/07/14 02:26:37;;;;;;;10.48;4.85;;;18.50;72.80;;;;;;5056588;28;20040;-17
2022/07/14 02:29:07;;;;;;;8.75;3.92;;;18.50;73.00;;;;;;5057486;28;20056;-18
2022/07/14 02:31:34;;;;;;;5.05;4.13;;;18.40;72.80;;;;;;5056631;28;20178;-17
2022/07/14 02:34:01;;;;;;;4.22;3.75;;;18.40;73.00;;;;;;5056946;28;20033;-18
2022/07/14 02:36:28;;;;;;;5.18;3.75;;;18.40;72.90;;;;;;5057008;28;20470;-18
2022/07/14 02:38:55;;;;;;;4.38;3.90;;;18.40;72.90;;;;;;5056865;28;20025;-18
2022/07/14 02:41:21;;;;;;;6.40;3.72;;;18.40;72.80;;;;;;5056531;28;20024;-17
2022/07/14 02:43:48;;;;;;;4.22;3.83;;;18.50;73.00;;;;;;5056757;28;20033;-17
2022/07/14 02:46:14;;;;;;;4.80;3.30;;;18.50;73.10;;;;;;5056597;28;20025;-18
2022/07/14 02:48:40;;;;;;;7.90;4.13;;;18.40;72.90;;;;;;5056248;28;20048;-18
2022/07/14 02:51:09;;;;;;;6.07;4.70;;;18.40;73.20;;;;;;5056488;28;20060;-18
2022/07/14 02:53:36;;;;;;;5.65;4.63;;;18.40;73.70;;;;;;5056588;28;20033;-17
2022/07/14 02:56:06;;;;;;;7.25;4.97;;;18.40;74.00;;;;;;5056533;28;20025;-17
2022/07/14 02:58:33;;;;;;;8.63;6.13;;;18.40;73.40;;;;;;5056263;28;20033;-17
2022/07/14 03:00:59;;;;;;;9.82;6.13;;;18.40;73.80;;;;;;5056104;28;20021;-18
2022/07/14 03:03:27;;;;;;;7.85;4.97;;;18.50;74.00;;;;;;5054915;28;20036;-18
2022/07/14 03:05:52;;;;;;;7.30;4.70;;;18.50;74.30;;;;;;5055985;28;20090;-17
2022/07/14 03:08:18;;;;;;;11.40;5.35;;;18.50;74.10;;;;;;5055874;28;20021;-19
2022/07/14 03:10:44;;;;;;;8.02;4.85;;;18.50;74.00;;;;;;5055801;28;20116;-18
2022/07/14 03:13:10;;;;;;;6.53;4.50;;;18.50;73.90;;;;;;5056217;28;20035;-18
2022/07/14 03:15:38;;;;;;;7.63;4.95;;;18.60;73.90;;;;;;5055874;28;20108;-18
2022/07/14 03:18:04;;;;;;;7.05;4.30;;;18.60;73.90;;;;;;5056215;28;20060;-17
2022/07/14 03:20:30;;;;;;;7.82;4.43;;;18.60;74.30;;;;;;5055558;28;20037;-17
2022/07/14 03:22:56;;;;;;;8.95;5.38;;;18.70;74.20;;;;;;5055931;28;20025;-17
2022/07/14 03:25:23;;;;;;;7.15;5.10;;;18.70;74.10;;;;;;5055704;28;20477;-18
2022/07/14 03:27:49;;;;;;;8.85;4.78;;;18.70;74.20;;;;;;5055756;28;20025;-17
2022/07/14 03:30:16;;;;;;;4.82;4.10;;;18.70;74.30;;;;;;5055107;28;20049;-17
2022/07/14 03:32:41;;;;;;;6.88;5.00;;;18.70;74.00;;;;;;5055930;28;20029;-19
2022/07/14 03:35:08;;;;;;;10.07;7.35;;;18.80;74.30;;;;;;5054840;28;20032;-17
2022/07/14 03:37:35;;;;;;;9.13;6.70;;;18.80;74.60;;;;;;5055717;28;20025;-17
2022/07/14 03:40:03;;;;;;;8.88;5.47;;;18.80;74.70;;;;;;5055735;28;20013;-18
2022/07/14 03:42:29;;;;;;;9.02;6.50;;;18.80;74.70;;;;;;5055243;28;20043;-18
2022/07/14 03:44:57;;;;;;;9.13;5.63;;;18.80;74.70;;;;;;5055351;28;20468;-17
2022/07/14 03:47:23;;;;;;;8.15;5.22;;;18.70;74.60;;;;;;5055506;28;20114;-17
2022/07/14 03:49:49;;;;;;;8.48;5.72;;;18.80;74.70;;;;;;5055470;28;20063;-17
2022/07/14 03:52:15;;;;;;;10.68;6.22;;;18.80;74.70;;;;;;5054984;28;20025;-20
2022/07/14 03:54:45;;;;;;;7.38;5.55;;;18.80;74.40;;;;;;5055809;28;20086;-17
2022/07/14 03:57:13;;;;;;;7.75;5.07;;;18.90;74.50;;;;;;5055053;28;20366;-18
2022/07/14 03:59:42;;;;;;;9.52;5.57;;;18.90;74.30;;;;;;5055052;28;20025;-18
2022/07/14 04:02:09;;;;;;;10.07;5.90;;;18.90;74.30;;;;;;5054966;28;20032;-19
2022/07/14 04:04:35;;;;;;;7.50;5.40;;;18.90;74.40;;;;;;5054757;28;20025;-18
2022/07/14 04:07:01;;;;;;;8.90;5.97;;;18.90;74.30;;;;;;5054846;28;20473;-18
2022/07/14 04:09:27;;;;;;;10.25;5.85;;;18.90;74.50;;;;;;5054753;28;20025;-17
2022/07/14 04:11:53;;;;;;;7.15;5.18;;;18.90;74.60;;;;;;5055045;28;20033;-18
2022/07/14 04:14:19;;;;;;;7.18;5.35;;;18.90;74.30;;;;;;5054569;28;20376;-17
2022/07/14 04:16:45;;;;;;;9.50;6.82;;;19.00;74.20;;;;;;5055284;28;20116;-17
2022/07/14 04:19:11;;;;;;;9.57;6.30;;;19.00;74.30;;;;;;5054688;28;20108;-17
2022/07/14 04:21:37;;;;;;;9.88;5.80;;;19.10;74.50;;;;;;5054537;28;20111;-17
2022/07/14 04:24:04;;;;;;;9.13;6.13;;;19.10;74.40;;;;;;5054605;28;20037;-16
2022/07/14 04:26:30;;;;;;;8.45;5.95;;;19.20;74.40;;;;;;5053053;28;20033;-17
2022/07/14 04:28:56;;;;;;;8.82;6.07;;;19.20;75.00;;;;;;5054456;28;20052;-18
2022/07/14 04:31:22;;;;;;;13.85;8.95;;;19.30;74.90;;;;;;5054239;28;20056;-18
2022/07/14 04:33:47;;;;;;;10.85;6.20;;;19.30;75.30;;;;;;5054457;28;20037;-18
2022/07/14 04:36:13;;;;;;;10.43;7.13;;;19.40;74.50;;;;;;5054386;28;20078;-18
2022/07/14 04:38:39;;;;;;;9.00;6.35;;;19.50;75.10;;;;;;5054169;28;20035;-18
2022/07/14 04:41:05;;;;;;;12.73;6.97;;;19.60;74.70;;;;;;5054314;28;20499;-18
2022/07/14 04:43:31;;;;;;;15.60;8.15;;;19.70;75.20;;;;;;5054772;28;20071;-17
2022/07/14 04:45:57;;;;;;;9.60;6.00;;;19.90;75.80;;;;;;5053777;28;20392;-18
2022/07/14 04:48:24;;;;;;;10.50;6.55;;;19.90;74.40;;;;;;5054004;28;20036;-18
2022/07/14 04:53:36;;;;;;;10.88;6.28;;;20.20;74.60;;;;;;5054485;28;20396;-19
2022/07/14 04:56:02;;;;;;;13.38;8.20;;;20.40;74.10;;;;;;5054294;28;20036;-17
2022/07/14 04:58:30;;;;;;;10.60;6.65;;;20.50;74.30;;;;;;5052642;28;20025;-17
2022/07/14 05:01:00;;;;;;;11.45;7.15;;;20.60;73.50;;;;;;5054442;28;20064;-17
2022/07/14 05:03:26;;;;;;;12.40;6.82;;;20.80;73.50;;;;;;5054152;28;20087;-18
2022/07/14 05:05:52;;;;;;;10.73;6.95;;;20.90;73.20;;;;;;5053826;28;20486;-17
2022/07/14 05:08:18;;;;;;;11.63;6.05;;;21.10;72.90;;;;;;5053566;28;20076;-18
2022/07/14 05:10:44;;;;;;;7.60;5.82;;;21.30;72.10;;;;;;5054059;28;20027;-17
2022/07/14 05:13:10;;;;;;;12.52;6.28;;;21.40;71.90;;;;;;5054027;28;20017;-17
2022/07/14 05:15:36;;;;;;;9.32;6.30;;;21.60;71.30;;;;;;5053971;28;20435;-17
2022/07/14 05:18:02;;;;;;;11.35;6.25;;;21.80;71.10;;;;;;5053977;28;20028;-18
2022/07/14 05:20:28;;;;;;;13.60;6.15;;;21.90;70.90;;;;;;5053354;28;20021;-18
2022/07/14 05:22:54;;;;;;;9.45;5.28;;;22.10;70.10;;;;;;5053435;28;20070;-17
2022/07/14 05:25:20;;;;;;;9.23;5.20;;;22.30;69.50;;;;;;5053671;28;20028;-18
2022/07/14 05:27:46;;;;;;;13.35;6.22;;;22.40;68.90;;;;;;5053437;28;20140;-18
2022/07/14 05:30:12;;;;;;;8.45;5.38;;;22.40;68.60;;;;;;5053292;28;20079;-18
2022/07/14 05:32:39;;;;;;;11.52;5.05;;;22.50;68.60;;;;;;5053756;28;20050;-17
2022/07/14 05:35:06;;;;;;;7.60;4.72;;;22.60;68.10;;;;;;5053621;28;20029;-17
2022/07/14 05:37:32;;;;;;;7.07;5.05;;;22.60;67.60;;;;;;5053194;28;20017;-17
2022/07/14 05:39:58;;;;;;;8.02;5.15;;;22.70;67.70;;;;;;5053608;28;20040;-17
2022/07/14 05:42:24;;;;;;;8.13;5.60;;;22.80;67.30;;;;;;5053136;28;20021;-18
2022/07/14 05:44:50;;;;;;;9.32;5.53;;;22.90;67.10;;;;;;5053459;28;20036;-17
2022/07/14 05:47:16;;;;;;;9.25;6.05;;;23.10;66.60;;;;;;5053175;28;20033;-17
2022/07/14 05:49:43;;;;;;;9.00;5.90;;;23.30;65.80;;;;;;5053097;28;20032;-17
2022/07/14 05:52:13;;;;;;;11.25;6.20;;;23.40;65.60;;;;;;5053136;28;20029;-17
2022/07/14 05:54:39;;;;;;;9.85;5.65;;;23.60;64.80;;;;;;5053336;28;20033;-17
2022/07/14 05:57:05;;;;;;;8.63;5.10;;;23.80;64.20;;;;;;5052995;28;20033;-17
2022/07/14 05:59:31;;;;;;;9.48;4.80;;;24.00;63.30;;;;;;5053299;28;20036;-17
2022/07/14 06:01:57;;;;;;;9.65;5.72;;;24.20;62.90;;;;;;5053417;28;20087;-17
2022/07/14 06:04:23;;;;;;;7.20;4.97;;;24.30;62.10;;;;;;5052713;28;20040;-15
2022/07/14 06:06:49;;;;;;;7.80;4.82;;;24.40;61.80;;;;;;5052826;28;20017;-17
2022/07/14 06:09:15;;;;;;;9.43;4.70;;;24.60;61.50;;;;;;5053419;28;20056;-17
2022/07/14 06:11:44;;;;;;;9.88;5.43;;;24.80;61.10;;;;;;5052875;28;20025;-18
2022/07/14 06:14:10;;;;;;;8.85;4.80;;;24.90;60.90;;;;;;5053148;28;20036;-17
2022/07/14 06:16:36;;;;;;;8.15;4.35;;;25.10;60.70;;;;;;5052967;28;20025;-17
2022/07/14 06:19:03;;;;;;;11.48;4.57;;;25.30;59.10;;;;;;5052821;28;20120;-17
2022/07/14 06:21:29;;;;;;;8.95;4.70;;;25.50;57.40;;;;;;5052906;28;20032;-16
2022/07/14 06:23:55;;;;;;;6.97;4.65;;;25.70;57.70;;;;;;5051564;28;20025;-17
2022/07/14 06:26:20;;;;;;;6.47;4.20;;;26.00;57.50;;;;;;5052614;28;20018;-16
2022/07/14 06:28:46;;;;;;;9.55;4.90;;;26.30;57.10;;;;;;5053101;28;20037;-18
2022/07/14 06:31:13;;;;;;;10.48;4.53;;;26.60;56.50;;;;;;5052501;28;20115;-18
2022/07/14 06:33:39;;;;;;;9.18;4.40;;;26.80;56.10;;;;;;5052858;28;20028;-17
2022/07/14 06:36:08;;;;;;;6.95;4.20;;;26.90;55.50;;;;;;5052943;28;20028;-17
2022/07/14 06:38:35;;;;;;;10.77;4.80;;;27.00;55.50;;;;;;5052325;28;20029;-17
2022/07/14 06:41:01;;;;;;;8.55;3.70;;;27.20;54.70;;;;;;5052853;28;20017;-18
2022/07/14 06:43:27;;;;;;;8.10;4.38;;;27.20;54.60;;;;;;5052941;28;20063;-17
2022/07/14 06:45:53;;;;;;;7.72;4.13;;;27.30;54.20;;;;;;5052703;28;20064;-17
2022/07/14 06:48:19;;;;;;;8.38;4.70;;;27.40;54.00;;;;;;5052631;28;20112;-16
2022/07/14 06:50:45;;;;;;;6.03;4.20;;;27.40;52.00;;;;;;5052756;28;20457;-17
2022/07/14 06:53:11;;;;;;;4.60;3.53;;;27.30;53.30;;;;;;5052424;28;20500;-16
2022/07/14 06:55:37;;;;;;;8.70;4.15;;;27.30;53.10;;;;;;5052478;28;20055;-17
2022/07/14 06:58:03;;;;;;;10.00;4.00;;;27.40;53.20;;;;;;5052959;28;20041;-16
2022/07/14 07:00:29;;;;;;;6.85;3.40;;;27.40;53.00;;;;;;5050949;28;20025;-18
2022/07/14 07:02:55;;;;;;;6.05;3.70;;;27.50;53.20;;;;;;5052621;28;20024;-17
2022/07/14 07:08:06;;;;;;;7.38;4.05;;;27.60;52.40;;;;;;5052716;28;20113;-16
2022/07/14 07:10:33;;;;;;;7.35;3.80;;;27.70;52.50;;;;;;5055758;28;20060;-17
2022/07/14 07:12:59;;;;;;;7.05;3.50;;;27.80;52.20;;;;;;5055981;28;20107;-17
2022/07/14 07:15:25;;;;;;;4.90;3.30;;;27.90;51.60;;;;;;5056228;28;20059;-17
2022/07/14 07:17:51;;;;;;;10.70;3.92;;;27.90;50.90;;;;;;5056118;28;20468;-17
2022/07/14 07:20:17;;;;;;;6.65;3.85;;;28.00;50.60;;;;;;5055640;28;20025;-16
2022/07/14 07:22:42;;;;;;;8.20;3.80;;;28.00;50.30;;;;;;5055981;28;20021;-16
2022/07/14 07:25:09;;;;;;;6.03;3.58;;;28.10;50.50;;;;;;5056116;28;20096;-16
2022/07/14 07:27:35;;;;;;;6.78;3.50;;;28.10;50.80;;;;;;5055966;28;20053;-16
2022/07/14 07:30:02;;;;;;;7.45;4.53;;;28.20;51.00;;;;;;5055516;28;20512;-18
2022/07/14 07:32:28;;;;;;;7.18;3.50;;;28.40;50.60;;;;;;5054281;28;20021;-15
2022/07/14 07:34:54;;;;;;;6.28;3.40;;;28.50;50.20;;;;;;5055727;28;20171;-16
2022/07/14 07:37:21;;;;;;;8.50;3.80;;;28.40;49.40;;;;;;5055441;28;20025;-16
2022/07/14 07:39:47;;;;;;;4.97;3.30;;;28.50;49.40;;;;;;5055753;28;20021;-16
2022/07/14 07:42:13;;;;;;;5.63;3.30;;;28.60;49.70;;;;;;5055506;28;20056;-18
2022/07/14 07:44:39;;;;;;;4.93;2.97;;;28.70;49.50;;;;;;5055848;28;20102;-16
2022/07/14 07:47:05;;;;;;;4.75;2.90;;;28.80;49.40;;;;;;5055327;28;20453;-16
2022/07/14 07:49:31;;;;;;;5.07;3.45;;;28.90;49.00;;;;;;5055362;28;20060;-16
2022/07/14 07:51:59;;;;;;;10.52;5.72;;;29.10;48.50;;;;;;5055481;28;20032;-17
2022/07/14 07:54:26;;;;;;;10.15;4.63;;;29.20;48.20;;;;;;5055629;28;20032;-17
2022/07/14 07:56:53;;;;;;;5.97;3.38;;;29.20;47.50;;;;;;5055216;28;20108;-18
2022/07/14 07:59:20;;;;;;;4.28;3.03;;;29.10;48.10;;;;;;5055432;28;20021;-17
2022/07/14 08:01:46;;;;;;;8.65;4.05;;;28.90;48.40;;;;;;5055344;28;20060;-16
2022/07/14 08:04:14;;;;;;;5.05;3.42;;;29.00;48.40;;;;;;5055024;28;20072;-17
2022/07/14 08:06:41;;;;;;;9.15;4.38;;;29.00;48.10;;;;;;5054873;28;20390;-17
2022/07/14 08:09:11;;;;;;;6.38;3.80;;;29.10;48.00;;;;;;5055465;28;20032;-17
2022/07/14 08:11:43;;;;;;;5.57;3.10;;;29.10;47.70;;;;;;5055782;28;20025;-17
2022/07/14 08:16:57;;;;;;;5.65;3.33;;;29.10;47.40;;;;;;5055339;28;20067;-17
2022/07/14 08:19:23;;;;;;;5.97;3.65;;;29.10;47.30;;;;;;5054762;28;20063;-16
2022/07/14 08:21:49;;;;;;;3.97;3.17;;;29.20;47.10;;;;;;5054808;28;20025;-17
2022/07/14 08:24:19;;;;;;;5.53;3.10;;;29.20;47.00;;;;;;5054473;28;20075;-15
2022/07/14 08:26:46;;;;;;;6.80;3.05;;;29.30;46.90;;;;;;5055621;28;20354;-17
2022/07/14 08:29:13;;;;;;;5.32;3.22;;;29.40;46.80;;;;;;5054416;28;20032;-17
2022/07/14 08:31:38;;;;;;;5.15;4.20;;;29.40;46.90;;;;;;5054273;28;20094;-17
2022/07/14 08:34:04;;;;;;;4.80;3.40;;;29.50;46.70;;;;;;5055022;28;20029;-17
2022/07/14 08:36:31;;;;;;;6.40;3.33;;;29.60;46.60;;;;;;5054692;28;20025;-17
2022/07/14 08:38:57;;;;;;;6.38;4.10;;;29.70;46.30;;;;;;5053100;28;20032;-17
2022/07/14 08:41:23;;;;;;;6.47;3.70;;;29.90;46.00;;;;;;5054616;28;20029;-16
2022/07/14 08:43:51;;;;;;;6.38;3.83;;;30.10;45.60;;;;;;5054321;28;20366;-17
2022/07/14 08:46:18;;;;;;;3.78;3.03;;;30.30;45.40;;;;;;5054283;28;20075;-17
2022/07/14 08:48:47;;;;;;;5.55;3.65;;;30.50;45.20;;;;;;5054338;28;20492;-17
2022/07/14 08:51:14;;;;;;;7.18;3.90;;;30.70;44.90;;;;;;5053969;28;20041;-17
2022/07/14 08:53:40;;;;;;;5.47;3.40;;;30.90;44.60;;;;;;5053996;28;20044;-17
2022/07/14 08:56:06;;;;;;;5.72;3.72;;;31.00;44.10;;;;;;5054302;28;20028;-17
2022/07/14 08:58:32;;;;;;;6.20;4.20;;;31.20;44.10;;;;;;5053727;28;20483;-17
2022/07/14 09:00:58;;;;;;;8.55;4.40;;;31.30;43.70;;;;;;5054259;28;20021;-18
2022/07/14 09:03:24;;;;;;;9.95;4.20;;;31.50;43.60;;;;;;5054235;28;20527;-17
2022/07/14 09:05:50;;;;;;;8.23;4.03;;;31.60;43.60;;;;;;5054145;28;20115;-17
2022/07/14 09:08:19;;;;;;;5.90;3.42;;;31.90;43.20;;;;;;5053942;28;20025;-17
2022/07/14 09:10:47;;;;;;;6.22;3.70;;;32.10;43.00;;;;;;5053663;28;20104;-17
2022/07/14 09:13:18;;;;;;;6.47;3.45;;;32.40;42.20;;;;;;5053738;28;20416;-17
2022/07/14 09:15:46;;;;;;;3.85;3.10;;;32.60;41.70;;;;;;5054041;28;20078;-17
2022/07/14 09:18:26;;;;;;;5.55;3.22;;;32.90;41.30;;;;;;5053777;28;20570;-17
2022/07/14 09:20:54;;;;;;;6.18;3.50;;;32.90;40.20;;;;;;5053607;28;20369;-16
2022/07/14 09:23:31;;;;;;;5.80;3.20;;;33.00;39.10;;;;;;5053509;28;20017;-16
2022/07/14 09:26:30;;;;;;;3.95;3.20;;;32.90;39.60;;;;;;5053539;28;20025;-16
2022/07/14 09:28:56;;;;;;;6.80;3.72;;;33.00;39.00;;;;;;5011733;28;20034;-19
2022/07/14 09:31:30;;;;;;;6.50;3.65;;;33.20;38.90;;;;;;5010915;28;20064;-17
2022/07/14 09:34:01;;;;;;;7.63;3.55;;;33.50;38.80;;;;;;5011735;28;20101;-17
2022/07/14 09:36:30;;;;;;;6.90;3.40;;;33.70;38.10;;;;;;5011319;28;20061;-17
2022/07/14 09:39:01;;;;;;;7.65;4.30;;;34.10;37.90;;;;;;5011632;28;20044;-16
2022/07/14 09:41:29;;;;;;;9.38;4.07;;;34.50;37.50;;;;;;5011580;28;20037;-17
2022/07/14 09:44:19;;;;;;;5.45;3.50;;;34.50;37.10;;;;;;5011481;28;20425;-17
2022/07/14 09:46:56;;;;;;;4.30;3.40;;;34.70;37.00;;;;;;5011882;28;20539;-17
2022/07/14 09:49:33;;;;;;;5.13;3.60;;;35.00;35.80;;;;;;5011442;28;20037;-17
2022/07/14 09:52:04;;;;;;;4.65;3.28;;;35.30;35.80;;;;;;5011456;28;20037;-17
2022/07/14 09:54:46;;;;;;;5.63;3.28;;;35.70;35.40;;;;;;5011167;28;20537;-17
2022/07/14 09:57:12;;;;;;;4.50;3.63;;;36.00;35.10;;;;;;5011383;28;20378;-16
2022/07/14 09:59:50;;;;;;;5.03;3.17;;;36.20;33.40;;;;;;5011324;28;20057;-16
2022/07/14 10:02:21;;;;;;;6.25;2.95;;;36.40;33.30;;;;;;5011322;28;20109;-16
2022/07/14 10:04:49;;;;;;;6.47;2.92;;;36.40;33.00;;;;;;5037128;28;20497;-16
2022/07/14 10:07:17;;;;;;;4.18;2.80;;;36.50;32.90;;;;;;5053139;28;20354;-16
2022/07/14 10:10:13;;;;;;;6.88;3.00;;;36.60;32.70;;;;;;5053133;28;20037;-17
2022/07/14 10:12:41;;;;;;;6.47;3.20;;;36.60;30.50;;;;;;5051774;28;20037;-16
2022/07/14 10:15:10;;;;;;;3.00;2.70;;;36.50;32.60;;;;;;5052876;28;20108;-16
2022/07/14 10:17:39;;;;;;;6.75;2.90;;;36.40;32.60;;;;;;5053140;28;20013;-16
2022/07/14 10:20:08;;;;;;;4.35;2.80;;;36.40;32.90;;;;;;5052923;28;20162;-16
2022/07/14 10:22:35;;;;;;;4.60;3.20;;;36.60;32.50;;;;;;5067172;28;20044;-16
2022/07/14 10:25:05;;;;;;;4.82;3.40;;;36.80;32.10;;;;;;5053054;28;20029;-16
2022/07/14 10:27:31;;;;;;;3.78;2.75;;;36.90;32.50;;;;;;5052750;28;20029;-16
2022/07/14 10:29:58;;;;;;;4.88;3.00;;;36.90;32.70;;;;;;5052656;28;20025;-16
2022/07/14 10:32:56;;;;;;;4.88;2.80;;;36.90;32.10;;;;;;5052567;28;20108;-16
2022/07/14 10:35:30;;;;;;;5.15;2.78;;;36.90;31.80;;;;;;5050585;28;20037;-16
2022/07/14 10:38:41;;;;;;;5.22;2.90;;;37.30;31.80;;;;;;5052815;28;20036;-17
2022/07/14 10:41:19;;;;;;;4.93;3.20;;;37.50;30.40;;;;;;5051097;28;20155;-17
2022/07/14 10:44:16;;;;;;;4.20;2.90;;;37.90;30.20;;;;;;5053351;28;20116;-17
2022/07/14 10:46:47;;;;;;;3.83;2.90;;;38.00;29.30;;;;;;5056516;28;20017;-17
2022/07/14 10:49:15;;;;;;;2.63;2.30;;;38.10;30.30;;;;;;5056733;28;20021;-17
2022/07/14 10:51:45;;;;;;;5.50;2.75;;;38.30;29.90;;;;;;5056394;28;20079;-16
2022/07/14 10:54:16;;;;;;;4.88;2.70;;;38.50;29.10;;;;;;5056365;28;20060;-16
2022/07/14 10:56:45;;;;;;;6.30;2.70;;;38.80;28.80;;;;;;5056437;28;20021;-16
2022/07/14 10:59:26;;;;;;;6.55;3.38;;;39.00;27.80;;;;;;5056246;28;20021;-17
2022/07/14 11:02:13;;;;;;;2.80;2.55;;;39.00;27.60;;;;;;5056496;28;20037;-16
2022/07/14 11:04:59;;;;;;;7.15;3.00;;;38.70;28.10;;;;;;5056747;28;20025;-15
2022/07/14 11:07:44;;;;;;;3.67;2.90;;;38.10;28.30;;;;;;5056606;28;20178;-16
2022/07/14 11:10:19;;;;;;;4.53;3.00;;;38.00;29.00;;;;;;5056011;28;20055;-16
2022/07/14 11:13:06;;;;;;;3.17;2.78;;;37.90;29.00;;;;;;5056291;28;20025;-15
2022/07/14 11:15:43;;;;;;;4.88;2.97;;;37.90;28.00;;;;;;5056235;28;20401;-16
2022/07/14 11:18:18;;;;;;;4.82;2.70;;;37.90;29.00;;;;;;5056201;28;20025;-16
2022/07/14 11:21:04;;;;;;;4.13;2.60;;;38.10;28.50;;;;;;5055825;28;20120;-15
2022/07/14 11:23:36;;;;;;;5.05;2.70;;;38.30;27.60;;;;;;5055959;28;20105;-17
2022/07/14 11:26:42;;;;;;;5.28;2.85;;;38.30;28.40;;;;;;5055900;28;20021;-16
2022/07/14 11:29:09;;;;;;;5.28;2.83;;;38.00;28.30;;;;;;5056210;28;20083;-16
2022/07/14 11:31:53;;;;;;;5.93;3.05;;;38.50;27.60;;;;;;5055420;28;20132;-16
2022/07/14 11:37:08;;;;;;;7.43;2.88;;;38.80;27.80;;;;;;5056171;28;20085;-16
2022/07/14 11:39:34;;;;;;;5.22;2.63;;;39.40;27.00;;;;;;5055544;28;20021;-15
2022/07/14 11:42:07;;;;;;;6.10;2.90;;;39.90;26.60;;;;;;5055417;28;20122;-16
2022/07/14 11:44:36;;;;;;;3.38;2.75;;;40.30;26.20;;;;;;5055451;28;20032;-16
2022/07/14 11:47:06;;;;;;;5.57;2.70;;;40.70;25.70;;;;;;5055908;28;20029;-16
2022/07/14 11:49:34;;;;;;;5.75;3.25;;;41.30;25.70;;;;;;5055231;28;20140;-16
2022/07/14 11:52:02;;;;;;;7.47;3.00;;;41.80;25.20;;;;;;5055367;28;20028;-16
2022/07/14 11:54:28;;;;;;;5.57;3.30;;;41.80;25.00;;;;;;5053273;28;20025;-16
2022/07/14 11:57:21;;;;;;;5.78;2.90;;;41.40;25.20;;;;;;5055198;28;20386;-17
2022/07/14 11:59:47;;;;;;;7.88;2.97;;;41.10;25.20;;;;;;5053356;28;20041;-17
2022/07/14 12:02:17;;;;;;;7.05;2.92;;;41.30;25.80;;;;;;5055000;28;20021;-18
2022/07/14 12:04:58;;;;;;;4.32;2.72;;;41.40;25.10;;;;;;5055087;28;20477;-16
2022/07/14 12:07:42;;;;;;;3.72;3.00;;;41.70;24.90;;;;;;5055184;28;20040;-16
2022/07/14 12:10:09;;;;;;;5.22;2.75;;;41.70;24.30;;;;;;5055196;28;20095;-16
2022/07/14 12:12:47;;;;;;;5.13;2.95;;;41.60;25.00;;;;;;5054649;28;20025;-16
2022/07/14 12:15:24;;;;;;;4.70;2.95;;;41.40;25.00;;;;;;5054846;28;20452;-16
2022/07/14 12:17:53;;;;;;;8.52;3.17;;;41.50;24.80;;;;;;5055029;28;20028;-16
2022/07/14 12:20:21;;;;;;;4.72;3.20;;;41.60;25.50;;;;;;5054855;28;20035;-17
2022/07/14 12:22:54;;;;;;;4.05;3.05;;;41.60;25.50;;;;;;5054574;28;20084;-17
2022/07/14 12:25:36;;;;;;;3.92;3.05;;;41.80;25.70;;;;;;5054975;28;20037;-16
2022/07/14 12:28:09;;;;;;;4.65;3.13;;;42.00;24.10;;;;;;5054921;28;20120;-17
2022/07/14 12:30:56;;;;;;;4.22;2.72;;;42.20;24.90;;;;;;5054236;28;20049;-16
2022/07/14 12:33:28;;;;;;;3.85;2.72;;;42.50;24.00;;;;;;5054707;28;20021;-16
2022/07/14 12:35:59;;;;;;;4.47;3.20;;;42.80;24.70;;;;;;5054687;28;20021;-16
2022/07/14 12:38:28;;;;;;;3.97;2.80;;;43.10;24.40;;;;;;5052912;28;20085;-17
2022/07/14 12:41:02;;;;;;;4.55;3.10;;;43.20;24.60;;;;;;5054658;28;20021;-16
2022/07/14 12:43:35;;;;;;;7.32;3.00;;;43.20;24.50;;;;;;5054359;28;20021;-16
2022/07/14 12:46:06;;;;;;;4.38;2.78;;;43.40;23.90;;;;;;5054634;28;20027;-16
2022/07/14 12:48:35;;;;;;;4.10;2.58;;;43.70;23.50;;;;;;5055138;28;20064;-16
2022/07/14 12:51:40;;;;;;;4.47;2.88;;;43.80;23.30;;;;;;5054173;28;20017;-16
2022/07/14 12:54:17;;;;;;;4.97;2.75;;;43.70;23.60;;;;;;5012279;28;20068;-15
2022/07/14 12:56:47;;;;;;;4.32;2.80;;;44.00;23.60;;;;;;5013057;28;20058;-16
2022/07/14 12:59:19;;;;;;;4.18;2.75;;;44.00;23.00;;;;;;5012434;28;20044;-16
2022/07/14 13:01:50;;;;;;;4.40;2.78;;;43.00;23.50;;;;;;5012299;28;20054;-15
2022/07/14 13:04:41;;;;;;;2.75;2.38;;;42.60;24.20;;;;;;5011897;28;20105;-15
2022/07/14 13:07:27;;;;;;;6.18;3.13;;;42.40;24.10;;;;;;5011692;28;20045;-16
2022/07/14 13:10:26;;;;;;;10.00;3.17;;;42.30;24.70;;;;;;5012383;28;20113;-16